Time;durP1;ratioP1;P1;durP2;ratioP2;P2;SDS_P1;SDS_P2;PMS_P1;PMS_P2;Temp;Humidity;BMP_temperature;BMP_pressure;BME280_temperature;BME280_humidity;BME280_pressure;Samples;Min_cycle;Max_cycle;Signal;HPM_P1;HPM_P2
2022/02/14 00:00:23;;;;;;;57.83;20.12;;;;;;;-5.60;100.00;102545.41;1587096;89;21052;-90
2022/02/14 00:02:49;;;;;;;52.58;19.25;;;;;;;-5.62;100.00;102542.88;1586566;88;21168;-90
2022/02/14 00:05:15;;;;;;;61.08;21.57;;;;;;;-5.64;100.00;102545.27;1588982;88;21570;-89
2022/02/14 00:07:41;;;;;;;57.45;19.40;;;;;;;-5.65;100.00;102540.94;1588944;88;21485;-91
2022/02/14 00:10:08;;;;;;;60.30;22.30;;;;;;;-5.66;100.00;102541.90;1578385;88;20875;-91
2022/02/14 00:12:39;;;;;;;63.75;21.30;;;;;;;-5.68;100.00;102534.59;1625888;88;21066;-90
2022/02/14 00:15:04;;;;;;;61.35;21.37;;;;;;;-5.67;100.00;102534.98;1625854;86;21074;-91
2022/02/14 00:17:30;;;;;;;70.15;23.87;;;;;;;-5.75;100.00;102534.18;1634056;86;20957;-91
2022/02/14 00:19:56;;;;;;;85.47;24.60;;;;;;;-5.80;100.00;102536.27;1645686;86;21059;-91
2022/02/14 00:22:22;;;;;;;89.55;29.35;;;;;;;-5.83;100.00;102532.55;1661834;85;20963;-90
2022/02/14 00:24:52;;;;;;;92.47;29.50;;;;;;;-5.84;100.00;102526.45;1679381;85;20943;-91
2022/02/14 00:27:19;;;;;;;76.45;25.52;;;;;;;-5.86;100.00;102526.19;1558641;91;21161;-91
2022/02/14 00:29:46;;;;;;;78.97;26.05;;;;;;;-5.90;100.00;102528.19;1606254;85;20962;-91
2022/02/14 00:32:12;;;;;;;68.35;24.70;;;;;;;-6.02;100.00;102522.02;1662514;86;21491;-91
2022/02/14 00:34:40;;;;;;;76.35;26.20;;;;;;;-6.08;100.00;102517.19;1662497;86;21076;-90
2022/02/14 00:37:06;;;;;;;75.30;25.45;;;;;;;-6.14;100.00;102511.52;1662477;86;21022;-91
2022/02/14 00:39:32;;;;;;;72.97;25.32;;;;;;;-6.18;100.00;102510.42;1662384;85;21337;-91
2022/02/14 00:41:58;;;;;;;77.37;26.73;;;;;;;-6.15;100.00;102515.06;1639786;86;27335;-91
2022/02/14 00:44:24;;;;;;;81.25;29.23;;;;;;;-6.13;100.00;102517.13;1662498;85;21542;-91
2022/02/14 00:46:51;;;;;;;84.75;30.05;;;;;;;-6.13;100.00;102515.34;1662385;86;21089;-90
2022/02/14 00:49:17;;;;;;;89.35;32.08;;;;;;;-6.14;100.00;102514.98;1662508;86;20986;-90
2022/02/14 00:51:43;;;;;;;88.07;28.55;;;;;;;-6.13;100.00;102510.56;1662552;86;21117;-90
2022/02/14 00:54:09;;;;;;;81.08;30.52;;;;;;;-6.14;100.00;102514.98;1662421;86;21586;-91
2022/02/14 00:56:35;;;;;;;86.80;30.35;;;;;;;-6.15;100.00;102513.28;1662473;85;21097;-91
2022/02/14 00:59:01;;;;;;;82.57;29.07;;;;;;;-6.15;100.00;102513.28;1662626;86;20970;-91
2022/02/14 01:01:31;;;;;;;88.50;32.45;;;;;;;-6.17;100.00;102517.81;1662680;86;20915;-91
2022/02/14 01:03:57;;;;;;;91.80;31.85;;;;;;;-6.22;100.00;102514.17;1662416;86;21297;-90
2022/02/14 01:06:25;;;;;;;102.27;34.30;;;;;;;-6.22;100.00;102515.48;1662567;86;21124;-90
2022/02/14 01:08:52;;;;;;;94.15;32.85;;;;;;;-6.22;100.00;102512.86;1662125;86;21086;-90
2022/02/14 01:11:18;;;;;;;104.72;37.40;;;;;;;-6.21;100.00;102510.59;1662482;86;21106;-91
2022/02/14 01:13:44;;;;;;;104.25;39.23;;;;;;;-6.20;100.00;102510.14;1662523;85;21077;-91
2022/02/14 01:16:10;;;;;;;116.85;39.70;;;;;;;-6.27;100.00;102505.76;1662583;85;21074;-90
2022/02/14 01:18:36;;;;;;;127.82;42.08;;;;;;;-6.27;100.00;102499.67;1640030;86;26912;-90
2022/02/14 01:21:02;;;;;;;115.20;40.80;;;;;;;-6.27;100.00;102505.76;1662517;86;27165;-90
2022/02/14 01:23:29;;;;;;;117.05;41.37;;;;;;;-6.27;100.00;102501.83;1674245;83;21145;-89
2022/02/14 01:25:55;;;;;;;115.52;38.42;;;;;;;-6.27;100.00;102498.36;1720758;83;21230;-90
2022/02/14 01:28:21;;;;;;;115.15;40.78;;;;;;;-6.28;100.00;102498.84;1720680;83;21246;-90
2022/02/14 01:30:47;;;;;;;112.10;40.28;;;;;;;-6.32;100.00;102495.20;1744522;79;20999;-90
2022/02/14 01:33:12;;;;;;;116.88;39.40;;;;;;;-6.34;100.00;102495.80;1806104;79;26609;-90
2022/02/14 01:35:38;;;;;;;100.33;38.17;;;;;;;-6.35;100.00;102490.16;1806017;79;20915;-90
2022/02/14 01:38:04;;;;;;;103.67;35.08;;;;;;;-6.33;100.00;102486.98;1805834;79;20971;-89
2022/02/14 01:40:30;;;;;;;96.90;35.43;;;;;;;-6.33;100.00;102489.59;1805932;79;21047;-90
2022/02/14 01:42:56;;;;;;;106.40;37.08;;;;;;;-6.33;100.00;102488.28;1805867;79;27082;-90
2022/02/14 01:45:22;;;;;;;120.02;43.15;;;;;;;-6.33;100.00;102484.35;1805980;79;20983;-90
2022/02/14 01:47:49;;;;;;;125.67;42.62;;;;;;;-6.33;100.00;102481.25;1805996;79;20872;-90
2022/02/14 01:50:17;;;;;;;113.12;36.70;;;;;;;-6.33;100.00;102479.94;1806179;79;21011;-90
2022/02/14 01:52:44;;;;;;;94.60;36.03;;;;;;;-6.35;100.00;102481.84;1805985;79;21129;-90
2022/02/14 01:55:14;;;;;;;101.85;38.23;;;;;;;-6.41;100.00;102473.91;1806253;79;20984;-89
2022/02/14 01:57:40;;;;;;;93.62;35.85;;;;;;;-6.42;100.00;102476.15;1806334;79;21027;-90
2022/02/14 02:00:11;;;;;;;96.17;35.03;;;;;;;-6.45;100.00;102475.05;1806086;79;21575;-90
2022/02/14 02:02:37;;;;;;;99.37;32.60;;;;;;;-6.45;100.00;102469.80;1732498;82;21579;-91
2022/02/14 02:05:03;;;;;;;101.87;37.88;;;;;;;-6.50;100.00;102471.91;1732809;82;21339;-90
2022/02/14 02:07:30;;;;;;;93.10;35.23;;;;;;;-6.53;100.00;102460.31;1732779;82;21056;-90
2022/02/14 02:09:56;;;;;;;93.50;34.73;;;;;;;-6.53;100.00;102462.94;1732612;82;20992;-90
2022/02/14 02:12:28;;;;;;;91.75;31.73;;;;;;;-6.51;100.00;102462.81;1728928;82;20892;-90
2022/02/14 02:15:02;;;;;;;92.37;32.45;;;;;;;-6.51;100.00;102458.41;1732059;82;20988;-90
2022/02/14 02:17:33;;;;;;;91.32;32.73;;;;;;;-6.51;100.00;102463.66;1664891;84;21479;-90
2022/02/14 02:20:02;;;;;;;98.82;34.18;;;;;;;-6.52;100.00;102458.05;1689068;84;21056;-90
2022/02/14 02:22:28;;;;;;;105.83;34.50;;;;;;;-6.52;100.00;102454.59;1688829;85;21107;-90
2022/02/14 02:24:57;;;;;;;94.75;31.27;;;;;;;-6.52;100.00;102455.43;1688736;83;21514;-90
2022/02/14 02:27:25;;;;;;;93.40;32.48;;;;;;;-6.52;100.00;102460.67;1689228;85;21070;-90
2022/02/14 02:29:58;;;;;;;85.65;29.95;;;;;;;-6.52;100.00;102459.84;1689080;85;21172;-90
2022/02/14 02:32:25;;;;;;;68.50;22.42;;;;;;;-6.54;100.00;102454.68;1653822;86;21102;-90
2022/02/14 02:34:51;;;;;;;65.00;21.70;;;;;;;-6.53;100.00;102455.07;1653883;85;20944;-90
2022/02/14 02:37:18;;;;;;;56.28;19.02;;;;;;;-6.52;100.00;102447.56;1653883;86;20853;-90
2022/02/14 02:39:45;;;;;;;48.68;18.37;;;;;;;-6.53;100.00;102451.58;1653874;86;21062;-90
2022/02/14 02:42:14;;;;;;;58.28;20.17;;;;;;;-6.54;100.00;102453.37;1653883;85;22371;-90
2022/02/14 02:44:42;;;;;;;55.40;19.80;;;;;;;-6.55;100.00;102447.77;1653576;86;21019;-90
2022/02/14 02:47:12;;;;;;;57.95;21.68;;;;;;;-6.53;100.00;102456.83;1653881;86;21095;-90
2022/02/14 02:49:38;;;;;;;58.25;19.17;;;;;;;-6.53;100.00;102450.27;1653986;86;21494;-90
2022/02/14 02:52:07;;;;;;;55.92;18.55;;;;;;;-6.55;100.00;102448.25;1653832;85;21563;-90
2022/02/14 02:54:34;;;;;;;55.12;19.52;;;;;;;-6.55;100.00;102449.08;1653732;86;22018;-90
2022/02/14 02:57:01;;;;;;;53.83;20.05;;;;;;;-6.56;100.00;102445.23;1653553;85;21066;-91
2022/02/14 02:59:29;;;;;;;51.30;18.37;;;;;;;-6.60;100.00;102451.16;1647144;86;21175;-89
2022/02/14 03:01:55;;;;;;;50.98;19.73;;;;;;;-6.65;100.00;102458.03;1639825;86;21600;-90
2022/02/14 03:04:22;;;;;;;55.80;20.15;;;;;;;-6.65;100.00;102455.86;1640120;86;20986;-90
2022/02/14 03:06:48;;;;;;;47.40;17.50;;;;;;;-6.65;100.00;102455.86;1639773;86;21088;-90
2022/02/14 03:09:15;;;;;;;53.15;19.87;;;;;;;-6.68;100.00;102455.58;1639893;86;20945;-90
2022/02/14 03:11:44;;;;;;;52.17;18.95;;;;;;;-6.70;100.00;102460.11;1639726;86;21547;-89
2022/02/14 03:14:10;;;;;;;56.98;21.20;;;;;;;-6.74;100.00;102459.09;1642275;85;21134;-91
2022/02/14 03:16:37;;;;;;;62.20;23.47;;;;;;;-6.78;100.00;102458.45;1667043;83;21114;-90
2022/02/14 03:19:03;;;;;;;71.70;27.93;;;;;;;-6.78;100.00;102464.17;1705769;82;21111;-90
2022/02/14 03:21:30;;;;;;;67.67;25.55;;;;;;;-6.79;100.00;102464.65;1707237;84;21024;-90
2022/02/14 03:23:57;;;;;;;67.37;23.60;;;;;;;-6.79;100.00;102457.23;1707652;82;21040;-90
2022/02/14 03:26:23;;;;;;;61.05;22.48;;;;;;;-6.77;100.00;102455.36;1707365;84;21071;-91
2022/02/14 03:28:52;;;;;;;69.60;25.92;;;;;;;-6.75;100.00;102459.56;1740629;79;21018;-90
2022/02/14 03:31:19;;;;;;;84.47;31.25;;;;;;;-6.74;100.00;102458.61;1806109;79;21072;-90
2022/02/14 03:33:45;;;;;;;95.47;34.67;;;;;;;-6.76;100.00;102456.58;1805936;79;20980;-90
2022/02/14 03:36:13;;;;;;;104.17;36.65;;;;;;;-6.83;100.00;102448.73;1805999;79;21583;-89
2022/02/14 03:38:42;;;;;;;114.03;38.33;;;;;;;-6.79;100.00;102456.78;1806146;79;20935;-90
2022/02/14 03:41:09;;;;;;;98.33;36.58;;;;;;;-6.80;100.00;102455.08;1805853;79;21062;-90
2022/02/14 03:43:36;;;;;;;92.90;35.40;;;;;;;-6.82;100.00;102453.50;1806135;79;21907;-90
2022/02/14 03:46:02;;;;;;;91.42;34.08;;;;;;;-6.83;100.00;102452.66;1806089;79;21505;-91
2022/02/14 03:48:28;;;;;;;89.47;32.83;;;;;;;-6.82;100.00;102444.33;1806363;79;20960;-90
2022/02/14 03:50:55;;;;;;;91.40;33.67;;;;;;;-6.86;100.00;102441.91;1806175;79;20844;-91
2022/02/14 03:53:23;;;;;;;87.17;31.60;;;;;;;-6.87;100.00;102442.02;1805806;79;20976;-90
2022/02/14 03:55:51;;;;;;;87.15;30.80;;;;;;;-6.89;100.00;102446.04;1806204;79;21091;-90
2022/02/14 03:58:17;;;;;;;81.12;31.27;;;;;;;-6.95;100.00;102442.52;1806021;79;21023;-90
2022/02/14 04:00:43;;;;;;;93.40;30.65;;;;;;;-6.95;100.00;102439.06;1806204;79;20936;-90
2022/02/14 04:03:09;;;;;;;85.92;30.10;;;;;;;-6.95;100.00;102439.06;1806323;79;20980;-90
2022/02/14 04:05:36;;;;;;;81.78;32.00;;;;;;;-6.94;100.00;102442.03;1806505;79;21428;-90
2022/02/14 04:08:02;;;;;;;93.10;32.58;;;;;;;-6.95;100.00;102435.12;1806282;79;21348;-90
2022/02/14 04:10:29;;;;;;;80.55;29.25;;;;;;;-6.95;100.00;102425.48;1805883;79;21070;-90
2022/02/14 04:12:55;;;;;;;81.97;27.60;;;;;;;-7.01;100.00;102428.98;1806047;79;21015;-89
2022/02/14 04:15:22;;;;;;;82.30;26.75;;;;;;;-7.01;100.00;102432.44;1806057;79;21492;-90
2022/02/14 04:17:48;;;;;;;81.55;26.85;;;;;;;-7.00;100.00;102435.89;1805747;79;21023;-89
2022/02/14 04:20:37;;;;;;;84.52;29.05;;;;;;;-7.01;100.00;102436.84;1803548;79;21116;-90
2022/02/14 04:23:25;;;;;;;95.90;30.77;;;;;;;-7.00;100.00;102445.92;1741440;80;21082;-90
2022/02/14 04:28:20;;;;;;;99.90;33.42;;;;;;;-7.01;100.00;102445.53;1558413;91;21052;-90
2022/02/14 04:30:46;;;;;;;102.72;36.42;;;;;;;-7.01;100.00;102448.16;1556774;91;21135;-89
2022/02/14 04:33:12;;;;;;;109.03;38.05;;;;;;;-7.00;100.00;102447.23;1534989;92;22357;-90
2022/02/14 04:35:38;;;;;;;111.55;38.15;;;;;;;-6.98;100.00;102449.27;1554873;91;21226;-90
2022/02/14 04:38:05;;;;;;;108.42;35.55;;;;;;;-6.95;100.00;102446.44;1561469;91;21780;-90
2022/02/14 04:40:35;;;;;;;101.33;35.25;;;;;;;-6.93;100.00;102454.22;1564362;91;21601;-90
2022/02/14 04:43:06;;;;;;;121.47;39.00;;;;;;;-6.92;100.00;102458.03;1524926;92;21076;-90
2022/02/14 04:45:52;;;;;;;132.43;44.42;;;;;;;-6.91;100.00;102452.31;1524264;92;21140;-90
2022/02/14 04:48:30;;;;;;;153.78;47.67;;;;;;;-6.90;100.00;102462.72;1501906;94;21402;-90
2022/02/14 04:50:57;;;;;;;160.00;53.80;;;;;;;-6.91;100.00;102458.87;1504572;94;21598;-90
2022/02/14 04:53:23;;;;;;;166.97;55.05;;;;;;;-6.90;100.00;102461.41;1504649;94;21093;-90
2022/02/14 04:55:49;;;;;;;180.87;57.53;;;;;;;-6.87;100.00;102457.75;1505019;94;20987;-90
2022/02/14 04:58:18;;;;;;;169.00;56.02;;;;;;;-6.82;100.00;102463.98;1512989;94;21895;-90
2022/02/14 05:00:45;;;;;;;193.30;55.95;;;;;;;-6.78;100.00;102462.39;1487341;94;21634;-90
2022/02/14 05:03:12;;;;;;;167.22;56.28;;;;;;;-6.73;100.00;102460.78;1494500;95;21120;-90
2022/02/14 05:05:38;;;;;;;156.57;52.17;;;;;;;-6.64;100.00;102463.63;1488878;94;21112;-90
2022/02/14 05:08:05;;;;;;;151.32;48.45;;;;;;;-6.57;100.00;102460.61;1488227;94;21159;-90
2022/02/14 05:10:31;;;;;;;149.15;50.48;;;;;;;-6.54;100.00;102463.86;1483186;95;21213;-91
2022/02/14 05:12:57;;;;;;;140.12;46.15;;;;;;;-6.48;100.00;102464.76;1493817;95;21128;-91
2022/02/14 05:17:51;;;;;;;155.63;46.68;;;;;;;-6.26;100.00;102468.59;1424159;98;22115;-89
2022/02/14 05:20:17;;;;;;;144.75;43.70;;;;;;;-6.19;100.00;102475.92;1426762;98;20997;-90
2022/02/14 05:22:43;;;;;;;134.97;43.17;;;;;;;-6.10;100.00;102470.52;1426174;100;21125;-90
2022/02/14 05:25:09;;;;;;;153.25;43.73;;;;;;;-5.98;100.00;102469.68;1440558;96;21124;-91
2022/02/14 05:27:36;;;;;;;136.40;42.48;;;;;;;-5.84;100.00;102466.56;1469131;96;21102;-90
2022/02/14 05:30:04;;;;;;;138.90;40.95;;;;;;;-5.73;100.00;102471.44;1473117;96;21091;-93
2022/02/14 05:32:30;;;;;;;141.12;40.73;;;;;;;-5.43;100.00;102469.39;1462447;96;21110;-91
2022/02/14 05:34:56;;;;;;;172.37;48.58;;;;;;;-4.85;100.00;102463.88;1482972;89;21211;-91
2022/02/14 05:37:23;;;;;;;155.60;43.25;;;;;;;-4.35;100.00;102468.00;1573166;89;21101;-88
2022/02/14 05:39:50;;;;;;;160.05;43.90;;;;;;;-3.83;100.00;102468.42;1573433;89;21137;-89
2022/02/14 05:42:17;;;;;;;157.82;43.08;;;;;;;-3.22;100.00;102468.87;1592208;89;21106;-89
2022/02/14 05:44:44;;;;;;;155.97;42.80;;;;;;;-2.62;100.00;102469.75;1612504;87;21193;-89
2022/02/14 05:47:12;;;;;;;155.75;42.93;;;;;;;-1.90;100.00;102466.34;1635875;85;21753;-89
2022/02/14 05:49:38;;;;;;;145.00;39.80;;;;;;;-1.30;100.00;102465.94;1641113;85;21053;-90
2022/02/14 05:52:06;;;;;;;144.97;39.00;;;;;;;-0.80;100.00;102467.69;1618714;86;21084;-90
2022/02/14 05:54:32;;;;;;;125.10;38.15;;;;;;;-0.34;100.00;102466.98;1646373;85;21101;-90
2022/02/14 05:56:58;;;;;;;124.12;37.10;;;;;;;0.18;100.00;102470.08;1648587;85;21620;-90
2022/02/14 05:59:25;;;;;;;123.22;37.08;;;;;;;0.85;100.00;102469.41;1652226;85;21109;-90
2022/02/14 06:01:51;;;;;;;133.03;40.65;;;;;;;1.48;100.00;102469.84;1630572;86;21121;-90
2022/02/14 06:04:17;;;;;;;130.10;40.15;;;;;;;2.02;100.00;102473.22;1660834;86;20975;-90
2022/02/14 06:06:43;;;;;;;121.20;39.05;;;;;;;3.15;100.00;102470.34;1629477;86;20942;-90
2022/02/14 06:09:11;;;;;;;122.30;39.08;;;;;;;4.32;100.00;102470.39;1641400;86;21721;-91
2022/02/14 06:11:37;;;;;;;122.53;41.23;;;;;;;5.73;100.00;102474.21;1603602;88;21049;-92
2022/02/14 06:14:03;;;;;;;126.07;42.25;;;;;;;7.02;100.00;102474.76;1586048;88;21754;-93
2022/02/14 06:16:29;;;;;;;109.27;41.55;;;;;;;8.17;100.00;102470.47;1593318;88;21034;-94
2022/02/14 06:18:55;;;;;;;121.35;42.62;;;;;;;9.18;100.00;102466.38;1576083;89;20998;-90
2022/02/14 06:21:21;;;;;;;124.80;44.20;;;;;;;10.28;100.00;102481.06;1589706;88;20869;-91
2022/02/14 06:23:48;;;;;;;128.70;45.35;;;;;;;11.20;100.00;102486.27;1649431;85;21818;-90
2022/02/14 06:26:15;;;;;;;125.20;45.83;;;;;;;12.46;100.00;102480.60;1646653;85;21036;-91
2022/02/14 06:28:42;;;;;;;116.37;45.08;;;;;;;13.51;90.10;102473.99;1647243;87;21123;-89
2022/02/14 06:31:09;;;;;;;125.15;45.75;;;;;;;14.44;80.31;102479.11;1647262;85;21078;-92
2022/02/14 06:33:37;;;;;;;104.63;42.43;;;;;;;15.23;72.67;102489.33;1635565;85;21065;-91
2022/02/14 06:36:07;;;;;;;115.60;45.98;;;;;;;15.66;63.00;102480.56;1631439;87;21636;-93
2022/02/14 06:38:34;;;;;;;112.62;44.48;;;;;;;16.23;58.51;102478.70;1631739;87;21030;-93
2022/02/14 06:41:02;;;;;;;123.18;47.48;;;;;;;16.60;55.13;102477.55;1631625;85;21163;-93
2022/02/14 06:43:28;;;;;;;120.60;47.20;;;;;;;17.48;51.47;102474.66;1735084;80;21555;-95
2022/02/14 06:45:54;;;;;;;112.32;45.25;;;;;;;18.33;46.79;102470.59;1724527;81;21010;-94
2022/02/14 06:48:20;;;;;;;105.55;45.05;;;;;;;18.64;45.87;102476.17;1777596;80;21083;-94
2022/02/14 06:50:48;;;;;;;104.38;43.40;;;;;;;18.72;42.72;102474.29;1792124;80;21002;-94
2022/02/14 06:53:14;;;;;;;108.97;45.17;;;;;;;19.01;42.08;102472.75;1786890;80;21010;-94
2022/02/14 06:55:40;;;;;;;105.92;45.43;;;;;;;19.77;42.11;102466.24;1781791;79;20911;-94
2022/02/14 06:58:06;;;;;;;108.32;45.55;;;;;;;20.66;40.25;102463.77;1742543;80;21507;-95
2022/02/14 07:00:32;;;;;;;114.17;48.13;;;;;;;21.32;39.23;102470.17;1767784;80;22028;-95
2022/02/14 07:02:58;;;;;;;110.32;46.58;;;;;;;22.11;38.16;102469.44;1776873;79;20988;-95
2022/02/14 07:05:25;;;;;;;106.75;48.15;;;;;;;22.77;36.02;102464.25;1771612;80;20916;-95
2022/02/14 07:07:51;;;;;;;104.05;45.98;;;;;;;23.10;34.80;102465.97;1772618;80;21058;-95
2022/02/14 07:10:18;;;;;;;105.37;46.10;;;;;;;23.45;33.77;102465.69;1776348;80;21011;-94
2022/02/14 07:12:45;;;;;;;100.92;44.60;;;;;;;23.80;32.92;102456.81;1781477;80;21131;-91
2022/02/14 07:15:11;;;;;;;92.05;45.00;;;;;;;24.47;32.36;102457.70;1777634;79;20943;-91
2022/02/14 07:17:39;;;;;;;102.62;45.40;;;;;;;24.93;31.81;102439.28;1741928;79;32715;-92
2022/02/14 07:20:06;;;;;;;92.20;43.85;;;;;;;25.38;31.04;102450.34;1772614;80;21098;-92
2022/02/14 07:22:32;;;;;;;95.40;44.05;;;;;;;25.89;29.79;102455.93;1758261;79;20984;-90
2022/02/14 07:24:58;;;;;;;91.90;43.35;;;;;;;26.18;29.17;102454.00;1757163;80;21279;-90
2022/02/14 07:27:24;;;;;;;95.62;44.23;;;;;;;26.60;28.73;102454.43;1755063;81;20895;-91
2022/02/14 07:29:50;;;;;;;86.70;41.20;;;;;;;26.75;28.77;102457.28;1698414;84;20963;-91
2022/02/14 07:32:18;;;;;;;88.35;42.10;;;;;;;26.92;27.87;102451.75;1698231;84;22496;-91
2022/02/14 07:34:44;;;;;;;89.40;41.00;;;;;;;27.47;27.20;102459.10;1675512;84;21505;-91
2022/02/14 07:37:11;;;;;;;85.60;39.67;;;;;;;27.67;26.75;102458.39;1698563;83;21144;-90
2022/02/14 07:39:37;;;;;;;76.62;38.23;;;;;;;27.81;26.44;102457.64;1693443;83;21642;-90
2022/02/14 07:42:04;;;;;;;81.30;39.05;;;;;;;27.88;25.99;102452.95;1719368;83;21063;-90
2022/02/14 07:44:30;;;;;;;76.00;37.65;;;;;;;28.03;25.89;102448.26;1719133;83;21375;-90
2022/02/14 07:46:56;;;;;;;74.32;36.03;;;;;;;27.98;25.17;102454.56;1719259;83;21241;-91
2022/02/14 07:49:24;;;;;;;75.87;36.75;;;;;;;28.20;25.15;102450.09;1719072;83;21297;-91
2022/02/14 07:51:50;;;;;;;79.55;37.10;;;;;;;28.61;24.17;102451.91;1719234;83;21094;-91
2022/02/14 07:54:16;;;;;;;73.70;35.98;;;;;;;28.42;22.87;102444.87;1732951;82;21473;-91
2022/02/14 07:56:43;;;;;;;71.02;33.60;;;;;;;28.26;24.21;102452.11;1751317;81;21093;-90
2022/02/14 07:59:09;;;;;;;65.90;30.05;;;;;;;28.83;23.63;102446.61;1751335;81;21026;-91
2022/02/14 08:01:35;;;;;;;62.88;31.20;;;;;;;29.02;23.17;102444.16;1751536;82;21122;-91
2022/02/14 08:04:01;;;;;;;66.80;33.28;;;;;;;29.29;23.81;102446.09;1714733;82;21051;-91
2022/02/14 08:06:27;;;;;;;76.20;35.90;;;;;;;30.05;22.22;102441.92;1751280;82;20922;-89
2022/02/14 08:08:54;;;;;;;68.15;33.53;;;;;;;30.39;21.99;102446.80;1751540;81;21074;-88
2022/02/14 08:11:20;;;;;;;66.67;31.82;;;;;;;30.64;20.93;102438.59;1751161;82;21787;-89
2022/02/14 08:13:46;;;;;;;58.90;30.85;;;;;;;30.62;21.42;102432.59;1772192;79;21143;-90
2022/02/14 08:16:12;;;;;;;56.63;28.80;;;;;;;30.53;21.27;102437.46;1768406;80;21053;-89
2022/02/14 08:18:39;;;;;;;56.68;28.85;;;;;;;30.44;21.13;102436.80;1767317;79;21499;-90
2022/02/14 08:21:05;;;;;;;62.10;30.82;;;;;;;30.49;21.09;102429.02;1783173;78;21031;-90
2022/02/14 08:23:31;;;;;;;53.73;26.07;;;;;;;30.78;21.23;102427.91;1771744;79;21038;-89
2022/02/14 08:25:57;;;;;;;42.78;20.95;;;;;;;30.89;21.06;102425.44;1780421;78;21773;-89
2022/02/14 08:28:24;;;;;;;34.10;17.12;;;;;;;30.38;20.76;102425.09;1787083;78;21031;-89
2022/02/14 08:30:51;;;;;;;25.32;13.48;;;;;;;30.49;20.62;102421.25;1792331;78;21035;-89
2022/02/14 08:33:18;;;;;;;24.98;12.35;;;;;;;30.47;20.51;102420.78;1805958;79;21015;-89
2022/02/14 08:35:45;;;;;;;23.22;12.20;;;;;;;30.99;20.42;102426.89;1812657;78;21000;-89
2022/02/14 08:38:11;;;;;;;19.73;10.85;;;;;;;31.43;19.79;102426.31;1801395;79;21038;-89
2022/02/14 08:40:38;;;;;;;22.05;15.45;;;;;;;31.32;19.71;102417.42;1785783;79;21012;-89
2022/02/14 08:43:04;;;;;;;17.82;10.18;;;;;;;30.92;19.49;102416.37;1776617;79;21055;-89
2022/02/14 08:45:33;;;;;;;15.75;9.45;;;;;;;30.57;19.11;102411.95;1806186;79;21071;-89
2022/02/14 08:48:01;;;;;;;20.70;12.45;;;;;;;30.76;19.79;102410.70;1789902;78;21024;-89
2022/02/14 08:50:29;;;;;;;26.73;17.10;;;;;;;31.33;18.90;102407.32;1790750;79;21051;-90
2022/02/14 08:53:00;;;;;;;15.15;8.60;;;;;;;31.12;18.15;102398.38;1802922;78;21019;-90
2022/02/14 08:55:25;;;;;;;16.25;8.48;;;;;;;30.46;18.54;102403.28;1715932;82;21054;-90
2022/02/14 08:57:51;;;;;;;23.95;13.68;;;;;;;28.23;18.66;102408.41;1712903;82;21075;-90
2022/02/14 09:00:17;;;;;;;21.40;10.72;;;;;;;25.76;19.48;102419.52;1711625;83;21524;-91
2022/02/14 09:02:43;;;;;;;14.80;7.78;;;;;;;23.48;20.58;102415.55;1713402;83;21139;-92
2022/02/14 09:05:11;;;;;;;17.05;7.78;;;;;;;21.22;22.01;102409.37;1710164;83;21018;-90
2022/02/14 09:07:37;;;;;;;20.12;8.28;;;;;;;19.25;23.26;102414.83;1705085;83;21088;-89
2022/02/14 09:10:05;;;;;;;16.93;7.35;;;;;;;17.67;24.68;102409.63;1702202;82;21051;-90
2022/02/14 09:12:31;;;;;;;17.32;6.87;;;;;;;16.48;25.77;102402.83;1708133;83;21385;-90
2022/02/14 09:14:58;;;;;;;18.80;6.42;;;;;;;15.58;26.85;102410.30;1711828;83;21087;-89
2022/02/14 09:17:25;;;;;;;19.32;6.92;;;;;;;14.54;27.57;102414.22;1705753;83;21015;-89
2022/02/14 09:19:53;;;;;;;18.00;6.35;;;;;;;13.45;28.84;102407.75;1705162;83;21553;-89
2022/02/14 09:22:20;;;;;;;16.02;6.10;;;;;;;12.54;29.92;102398.34;1713909;83;21105;-88
2022/02/14 09:24:46;;;;;;;17.23;5.83;;;;;;;11.78;31.14;102398.27;1714110;83;21134;-88
2022/02/14 09:27:12;;;;;;;17.50;5.85;;;;;;;11.12;32.61;102394.28;1713856;83;21090;-88
2022/02/14 09:29:39;;;;;;;17.92;6.35;;;;;;;10.59;33.24;102387.84;1714145;83;21011;-88
2022/02/14 09:32:05;;;;;;;17.65;5.97;;;;;;;10.04;33.83;102390.95;1714111;82;21063;-88
2022/02/14 09:34:32;;;;;;;18.20;6.28;;;;;;;9.64;34.33;102382.13;1714217;83;21081;-88
2022/02/14 09:36:58;;;;;;;15.32;5.67;;;;;;;9.33;35.04;102383.61;1713845;83;21067;-88
2022/02/14 09:41:53;;;;;;;15.15;4.78;;;;;;;8.74;35.35;102377.14;1653005;86;21110;-87
2022/02/14 09:44:19;;;;;;;10.72;4.33;;;;;;;8.43;35.96;102361.53;1653210;86;21085;-88
2022/02/14 09:46:45;;;;;;;18.02;5.67;;;;;;;8.15;37.28;102362.44;1653039;86;20904;-89
2022/02/14 09:49:12;;;;;;;15.32;5.15;;;;;;;7.93;37.95;102359.02;1640203;86;20956;-89
2022/02/14 09:51:38;;;;;;;15.75;5.83;;;;;;;7.67;38.37;102354.84;1637877;82;21190;-89
2022/02/14 09:54:07;;;;;;;15.05;6.03;;;;;;;7.53;38.84;102351.26;1737805;82;21125;-89
2022/02/14 09:56:35;;;;;;;15.60;5.47;;;;;;;7.36;39.05;102349.89;1728252;81;21065;-89
2022/02/14 09:59:04;;;;;;;20.15;5.53;;;;;;;7.28;39.56;102342.30;1713359;81;21096;-90
2022/02/14 10:01:31;;;;;;;13.93;5.15;;;;;;;7.16;39.80;102345.70;1745870;81;21097;-91
2022/02/14 10:04:00;;;;;;;13.28;5.28;;;;;;;7.04;40.70;102344.89;1708030;83;21217;-90
2022/02/14 10:06:32;;;;;;;15.48;5.00;;;;;;;6.91;40.37;102336.74;1707896;84;21052;-91
2022/02/14 10:09:19;;;;;;;19.95;5.37;;;;;;;6.81;40.92;102338.90;1708884;84;21065;-90
2022/02/14 10:12:09;;;;;;;16.82;5.35;;;;;;;6.70;41.34;102337.55;1680790;83;21055;-87
2022/02/14 10:14:35;;;;;;;11.97;3.70;;;;;;;6.63;42.03;102339.86;1681432;85;21078;-90
2022/02/14 10:17:08;;;;;;;11.18;3.42;;;;;;;6.52;41.96;102333.97;1682460;85;21068;-90
2022/02/14 10:19:45;;;;;;;12.68;3.33;;;;;;;6.42;41.92;102338.81;1681763;85;21229;-90
2022/02/14 10:22:09;;;;;;;12.88;4.00;;;;;;;6.34;42.55;102329.03;1682064;85;21049;-90
2022/02/14 10:24:44;;;;;;;7.37;3.50;;;;;;;6.34;42.75;102325.53;1682432;85;21093;-89
2022/02/14 10:27:12;;;;;;;14.50;3.50;;;;;;;6.33;42.58;102321.20;1682109;85;21038;-89
2022/02/14 10:29:41;;;;;;;15.03;4.28;;;;;;;6.28;42.88;102318.25;1676311;84;21142;-90
2022/02/14 10:32:17;;;;;;;11.45;4.30;;;;;;;6.22;43.08;102319.84;1679497;84;21157;-90
2022/02/14 10:34:54;;;;;;;11.93;4.30;;;;;;;6.18;43.31;102313.21;1646915;85;21069;-90
2022/02/14 10:37:24;;;;;;;7.95;3.08;;;;;;;6.14;43.36;102307.89;1634423;86;21091;-90
2022/02/14 10:39:53;;;;;;;8.93;3.15;;;;;;;6.11;43.63;102300.23;1628321;87;21655;-92
2022/02/14 10:42:19;;;;;;;6.65;2.83;;;;;;;6.05;43.11;102303.16;1639231;86;21173;-89
2022/02/14 10:45:08;;;;;;;8.43;3.25;;;;;;;6.04;43.73;102300.17;1643440;86;23199;-90
2022/02/14 10:47:42;;;;;;;6.90;2.98;;;;;;;5.99;43.71;102297.73;1633847;85;21722;-89
2022/02/14 10:50:19;;;;;;;;;;;;;;;6.01;43.79;102291.18;1584163;89;21165;-90
2022/02/14 10:52:57;;;;;;;12.23;3.22;;;;;;;5.98;44.20;102292.89;1578413;90;20149;-90
2022/02/14 10:55:30;;;;;;;9.15;2.83;;;;;;;5.98;43.17;102288.88;1582405;90;21725;-90
2022/02/14 10:57:58;;;;;;;9.30;2.75;;;;;;;5.98;43.59;102286.72;1525259;93;21024;-90
2022/02/14 11:00:28;;;;;;;17.85;4.30;;;;;;;5.94;43.53;102286.75;1524948;93;21048;-90
2022/02/14 11:02:58;;;;;;;10.88;2.85;;;;;;;5.91;43.55;102284.77;1525418;93;21103;-90
2022/02/14 11:05:26;;;;;;;10.72;3.50;;;;;;;5.97;43.90;102288.56;1525440;92;21043;-89
2022/02/14 11:07:53;;;;;;;7.72;3.02;;;;;;;5.91;43.92;102280.75;1545405;90;21216;-90
2022/02/14 11:10:21;;;;;;;10.13;3.08;;;;;;;5.90;43.55;102280.41;1555740;91;21173;-89
2022/02/14 11:12:56;;;;;;;8.05;3.08;;;;;;;5.89;44.19;102278.76;1556046;92;21004;-89
2022/02/14 11:15:34;;;;;;;9.58;3.20;;;;;;;5.89;44.35;102273.41;1555731;90;21068;-89